sensor_id;sensor_type;location;lat;lon;timestamp;P1;P2;P0
69224;PMS1003;56333;51.306;17.056;2022-12-15T00:01:09;101.30;46.30;
69224;PMS1003;56333;51.306;17.056;2022-12-15T00:02:55;108.50;46.10;
69224;PMS1003;56333;51.306;17.056;2022-12-15T00:04:47;96.80;44.20;
69224;PMS1003;56333;51.306;17.056;2022-12-15T00:06:32;100.00;44.80;
69224;PMS1003;56333;51.306;17.056;2022-12-15T00:08:19;99.90;45.90;
69224;PMS1003;56333;51.306;17.056;2022-12-15T00:10:07;100.40;45.90;
69224;PMS1003;56333;51.306;17.056;2022-12-15T00:11:53;104.20;46.40;
69224;PMS1003;56333;51.306;17.056;2022-12-15T00:13:39;102.10;46.70;
69224;PMS1003;56333;51.306;17.056;2022-12-15T00:15:25;97.40;45.20;
69224;PMS1003;56333;51.306;17.056;2022-12-15T00:17:11;100.00;47.10;
69224;PMS1003;56333;51.306;17.056;2022-12-15T00:18:57;101.00;46.70;
69224;PMS1003;56333;51.306;17.056;2022-12-15T00:20:43;102.00;46.50;
69224;PMS1003;56333;51.306;17.056;2022-12-15T00:22:29;104.70;45.80;
69224;PMS1003;56333;51.306;17.056;2022-12-15T00:24:15;102.80;46.30;
69224;PMS1003;56333;51.306;17.056;2022-12-15T00:26:01;112.80;47.10;
69224;PMS1003;56333;51.306;17.056;2022-12-15T00:27:47;97.50;44.40;
69224;PMS1003;56333;51.306;17.056;2022-12-15T00:29:33;97.60;45.10;
69224;PMS1003;56333;51.306;17.056;2022-12-15T00:31:19;102.10;45.90;
69224;PMS1003;56333;51.306;17.056;2022-12-15T00:33:11;98.50;45.10;
69224;PMS1003;56333;51.306;17.056;2022-12-15T00:34:56;99.60;46.60;
69224;PMS1003;56333;51.306;17.056;2022-12-15T00:36:42;103.00;46.30;
69224;PMS1003;56333;51.306;17.056;2022-12-15T00:38:29;101.20;46.60;
69224;PMS1003;56333;51.306;17.056;2022-12-15T00:40:11;90.60;42.30;
69224;PMS1003;56333;51.306;17.056;2022-12-15T00:41:40;93.90;43.00;
69224;PMS1003;56333;51.306;17.056;2022-12-15T00:43:09;101.00;44.80;
69224;PMS1003;56333;51.306;17.056;2022-12-15T00:44:37;94.90;44.60;
69224;PMS1003;56333;51.306;17.056;2022-12-15T00:46:06;93.60;43.60;
69224;PMS1003;56333;51.306;17.056;2022-12-15T00:47:52;90.90;41.80;
69224;PMS1003;56333;51.306;17.056;2022-12-15T00:49:22;104.70;43.70;
69224;PMS1003;56333;51.306;17.056;2022-12-15T00:51:09;98.00;42.00;
69224;PMS1003;56333;51.306;17.056;2022-12-15T00:52:37;99.20;43.70;
69224;PMS1003;56333;51.306;17.056;2022-12-15T00:54:23;93.80;42.90;
69224;PMS1003;56333;51.306;17.056;2022-12-15T00:56:09;93.80;42.50;
69224;PMS1003;56333;51.306;17.056;2022-12-15T00:57:56;93.10;41.70;
69224;PMS1003;56333;51.306;17.056;2022-12-15T00:59:42;96.70;42.40;
69224;PMS1003;56333;51.306;17.056;2022-12-15T01:01:29;93.90;41.50;
69224;PMS1003;56333;51.306;17.056;2022-12-15T01:03:22;94.30;42.80;
69224;PMS1003;56333;51.306;17.056;2022-12-15T01:05:09;96.10;41.60;
69224;PMS1003;56333;51.306;17.056;2022-12-15T01:06:55;93.00;41.60;
69224;PMS1003;56333;51.306;17.056;2022-12-15T01:08:41;92.30;40.10;
69224;PMS1003;56333;51.306;17.056;2022-12-15T01:10:27;87.10;39.10;
69224;PMS1003;56333;51.306;17.056;2022-12-15T01:12:13;87.10;38.00;
69224;PMS1003;56333;51.306;17.056;2022-12-15T01:13:59;85.70;38.70;
69224;PMS1003;56333;51.306;17.056;2022-12-15T01:15:45;80.30;36.40;
69224;PMS1003;56333;51.306;17.056;2022-12-15T01:17:31;88.40;38.00;
69224;PMS1003;56333;51.306;17.056;2022-12-15T01:19:18;90.10;39.40;
69224;PMS1003;56333;51.306;17.056;2022-12-15T01:21:05;89.10;37.50;
69224;PMS1003;56333;51.306;17.056;2022-12-15T01:24:03;83.80;35.40;
69224;PMS1003;56333;51.306;17.056;2022-12-15T01:25:32;79.90;36.30;
69224;PMS1003;56333;51.306;17.056;2022-12-15T01:27:01;79.20;36.30;
69224;PMS1003;56333;51.306;17.056;2022-12-15T01:28:29;82.20;37.70;
69224;PMS1003;56333;51.306;17.056;2022-12-15T01:29:57;85.10;38.30;
69224;PMS1003;56333;51.306;17.056;2022-12-15T01:31:26;86.80;38.80;
69224;PMS1003;56333;51.306;17.056;2022-12-15T01:32:54;89.40;39.10;
69224;PMS1003;56333;51.306;17.056;2022-12-15T01:34:23;81.70;36.20;
69224;PMS1003;56333;51.306;17.056;2022-12-15T01:36:00;82.20;37.80;
69224;PMS1003;56333;51.306;17.056;2022-12-15T01:37:28;84.90;37.40;
69224;PMS1003;56333;51.306;17.056;2022-12-15T01:38:57;79.10;35.80;
69224;PMS1003;56333;51.306;17.056;2022-12-15T01:40:25;87.90;38.30;
69224;PMS1003;56333;51.306;17.056;2022-12-15T01:42:15;86.00;38.10;
69224;PMS1003;56333;51.306;17.056;2022-12-15T01:43:44;84.10;37.40;
69224;PMS1003;56333;51.306;17.056;2022-12-15T01:45:51;87.30;36.90;
69224;PMS1003;56333;51.306;17.056;2022-12-15T01:47:25;92.50;39.00;
69224;PMS1003;56333;51.306;17.056;2022-12-15T01:48:58;86.20;38.40;
69224;PMS1003;56333;51.306;17.056;2022-12-15T01:50:32;90.30;38.50;
69224;PMS1003;56333;51.306;17.056;2022-12-15T01:52:07;81.40;37.90;
69224;PMS1003;56333;51.306;17.056;2022-12-15T01:53:41;88.80;38.10;
69224;PMS1003;56333;51.306;17.056;2022-12-15T01:55:11;86.50;39.10;
69224;PMS1003;56333;51.306;17.056;2022-12-15T01:56:45;87.90;38.60;
69224;PMS1003;56333;51.306;17.056;2022-12-15T01:58:17;88.40;38.20;
69224;PMS1003;56333;51.306;17.056;2022-12-15T02:01:18;86.40;38.50;
69224;PMS1003;56333;51.306;17.056;2022-12-15T02:02:47;93.60;40.50;
69224;PMS1003;56333;51.306;17.056;2022-12-15T02:04:16;86.90;38.90;
69224;PMS1003;56333;51.306;17.056;2022-12-15T02:05:46;86.40;38.30;
69224;PMS1003;56333;51.306;17.056;2022-12-15T02:07:16;88.40;38.90;
69224;PMS1003;56333;51.306;17.056;2022-12-15T02:08:48;88.80;38.60;
69224;PMS1003;56333;51.306;17.056;2022-12-15T02:10:18;82.30;36.70;
69224;PMS1003;56333;51.306;17.056;2022-12-15T02:11:56;83.50;36.70;
69224;PMS1003;56333;51.306;17.056;2022-12-15T02:13:36;84.30;37.10;
69224;PMS1003;56333;51.306;17.056;2022-12-15T02:15:18;85.90;37.00;
69224;PMS1003;56333;51.306;17.056;2022-12-15T02:17:15;89.40;37.60;
69224;PMS1003;56333;51.306;17.056;2022-12-15T02:18:59;79.50;35.00;
69224;PMS1003;56333;51.306;17.056;2022-12-15T02:20:51;72.10;34.00;
69224;PMS1003;56333;51.306;17.056;2022-12-15T02:22:33;84.90;36.30;
69224;PMS1003;56333;51.306;17.056;2022-12-15T02:24:42;82.30;36.40;
69224;PMS1003;56333;51.306;17.056;2022-12-15T02:27:06;81.20;36.40;
69224;PMS1003;56333;51.306;17.056;2022-12-15T02:28:55;86.80;37.50;
69224;PMS1003;56333;51.306;17.056;2022-12-15T02:30:35;82.20;37.10;
69224;PMS1003;56333;51.306;17.056;2022-12-15T02:32:10;83.40;37.60;
69224;PMS1003;56333;51.306;17.056;2022-12-15T02:33:46;83.60;38.20;
69224;PMS1003;56333;51.306;17.056;2022-12-15T02:35:35;82.00;37.90;
69224;PMS1003;56333;51.306;17.056;2022-12-15T02:37:13;82.60;37.30;
69224;PMS1003;56333;51.306;17.056;2022-12-15T02:38:43;86.20;38.10;
69224;PMS1003;56333;51.306;17.056;2022-12-15T02:40:13;87.00;38.40;
69224;PMS1003;56333;51.306;17.056;2022-12-15T02:41:44;88.60;39.30;
69224;PMS1003;56333;51.306;17.056;2022-12-15T02:43:13;89.30;40.40;
69224;PMS1003;56333;51.306;17.056;2022-12-15T02:44:46;86.90;39.40;
69224;PMS1003;56333;51.306;17.056;2022-12-15T02:46:25;93.20;40.60;
69224;PMS1003;56333;51.306;17.056;2022-12-15T02:48:06;91.20;40.50;
69224;PMS1003;56333;51.306;17.056;2022-12-15T02:49:53;92.20;40.10;
69224;PMS1003;56333;51.306;17.056;2022-12-15T02:51:45;91.70;41.00;
69224;PMS1003;56333;51.306;17.056;2022-12-15T02:53:36;93.00;41.30;
69224;PMS1003;56333;51.306;17.056;2022-12-15T02:55:19;87.80;40.20;
69224;PMS1003;56333;51.306;17.056;2022-12-15T02:57:02;95.60;41.50;
69224;PMS1003;56333;51.306;17.056;2022-12-15T02:58:41;92.30;41.10;
69224;PMS1003;56333;51.306;17.056;2022-12-15T03:00:15;88.60;41.10;
69224;PMS1003;56333;51.306;17.056;2022-12-15T03:01:50;90.90;40.80;
69224;PMS1003;56333;51.306;17.056;2022-12-15T03:03:22;89.30;40.80;
69224;PMS1003;56333;51.306;17.056;2022-12-15T03:04:50;94.20;43.20;
69224;PMS1003;56333;51.306;17.056;2022-12-15T03:06:20;95.90;42.50;
69224;PMS1003;56333;51.306;17.056;2022-12-15T03:07:50;99.80;43.00;
69224;PMS1003;56333;51.306;17.056;2022-12-15T03:09:19;98.10;43.20;
69224;PMS1003;56333;51.306;17.056;2022-12-15T03:10:50;99.30;44.00;
69224;PMS1003;56333;51.306;17.056;2022-12-15T03:12:21;94.10;43.00;
69224;PMS1003;56333;51.306;17.056;2022-12-15T03:13:50;95.60;42.40;
69224;PMS1003;56333;51.306;17.056;2022-12-15T03:15:20;97.20;43.90;
69224;PMS1003;56333;51.306;17.056;2022-12-15T03:16:48;100.70;45.20;
69224;PMS1003;56333;51.306;17.056;2022-12-15T03:18:17;103.40;46.10;
69224;PMS1003;56333;51.306;17.056;2022-12-15T03:19:48;110.20;47.30;
69224;PMS1003;56333;51.306;17.056;2022-12-15T03:21:17;107.30;48.40;
69224;PMS1003;56333;51.306;17.056;2022-12-15T03:22:45;111.30;48.50;
69224;PMS1003;56333;51.306;17.056;2022-12-15T03:24:14;104.70;48.50;
69224;PMS1003;56333;51.306;17.056;2022-12-15T03:25:44;106.60;47.90;
69224;PMS1003;56333;51.306;17.056;2022-12-15T03:27:13;111.10;50.10;
69224;PMS1003;56333;51.306;17.056;2022-12-15T03:28:42;112.10;51.50;
69224;PMS1003;56333;51.306;17.056;2022-12-15T03:30:13;116.60;50.60;
69224;PMS1003;56333;51.306;17.056;2022-12-15T03:31:42;119.50;49.90;
69224;PMS1003;56333;51.306;17.056;2022-12-15T03:33:11;130.20;54.40;
69224;PMS1003;56333;51.306;17.056;2022-12-15T03:34:40;126.40;53.50;
69224;PMS1003;56333;51.306;17.056;2022-12-15T03:36:11;122.90;52.10;
69224;PMS1003;56333;51.306;17.056;2022-12-15T03:37:39;126.30;52.70;
69224;PMS1003;56333;51.306;17.056;2022-12-15T03:39:08;116.50;50.40;
69224;PMS1003;56333;51.306;17.056;2022-12-15T03:40:37;115.70;50.70;
69224;PMS1003;56333;51.306;17.056;2022-12-15T03:42:05;114.20;49.90;
69224;PMS1003;56333;51.306;17.056;2022-12-15T03:43:33;114.70;49.60;
69224;PMS1003;56333;51.306;17.056;2022-12-15T03:45:02;116.00;50.10;
69224;PMS1003;56333;51.306;17.056;2022-12-15T03:46:32;118.10;51.70;
69224;PMS1003;56333;51.306;17.056;2022-12-15T03:48:01;114.90;51.40;
69224;PMS1003;56333;51.306;17.056;2022-12-15T03:49:30;114.20;51.30;
69224;PMS1003;56333;51.306;17.056;2022-12-15T03:50:59;116.50;50.30;
69224;PMS1003;56333;51.306;17.056;2022-12-15T03:52:27;118.50;49.90;
69224;PMS1003;56333;51.306;17.056;2022-12-15T03:53:56;114.10;51.10;
69224;PMS1003;56333;51.306;17.056;2022-12-15T03:55:25;117.00;51.00;
69224;PMS1003;56333;51.306;17.056;2022-12-15T03:56:55;110.60;47.80;
69224;PMS1003;56333;51.306;17.056;2022-12-15T03:58:24;109.80;46.60;
69224;PMS1003;56333;51.306;17.056;2022-12-15T03:59:53;110.70;47.70;
69224;PMS1003;56333;51.306;17.056;2022-12-15T04:01:29;107.50;48.20;
69224;PMS1003;56333;51.306;17.056;2022-12-15T04:02:59;107.50;46.90;
69224;PMS1003;56333;51.306;17.056;2022-12-15T04:04:28;109.00;46.70;
69224;PMS1003;56333;51.306;17.056;2022-12-15T04:05:56;102.90;46.10;
69224;PMS1003;56333;51.306;17.056;2022-12-15T04:07:25;106.30;45.30;
69224;PMS1003;56333;51.306;17.056;2022-12-15T04:08:53;100.40;45.30;
69224;PMS1003;56333;51.306;17.056;2022-12-15T04:10:23;102.20;46.30;
69224;PMS1003;56333;51.306;17.056;2022-12-15T04:11:53;103.40;45.60;
69224;PMS1003;56333;51.306;17.056;2022-12-15T04:13:22;98.80;45.30;
69224;PMS1003;56333;51.306;17.056;2022-12-15T04:14:51;103.40;45.80;
69224;PMS1003;56333;51.306;17.056;2022-12-15T04:16:19;102.10;45.90;
69224;PMS1003;56333;51.306;17.056;2022-12-15T04:17:48;104.80;48.10;
69224;PMS1003;56333;51.306;17.056;2022-12-15T04:19:17;103.50;45.60;
69224;PMS1003;56333;51.306;17.056;2022-12-15T04:21:03;100.50;43.60;
69224;PMS1003;56333;51.306;17.056;2022-12-15T04:22:32;100.70;44.30;
69224;PMS1003;56333;51.306;17.056;2022-12-15T04:24:01;100.10;44.60;
69224;PMS1003;56333;51.306;17.056;2022-12-15T04:25:48;100.40;43.60;
69224;PMS1003;56333;51.306;17.056;2022-12-15T04:27:34;100.90;44.60;
69224;PMS1003;56333;51.306;17.056;2022-12-15T04:29:20;100.40;45.20;
69224;PMS1003;56333;51.306;17.056;2022-12-15T04:31:10;102.20;43.70;
69224;PMS1003;56333;51.306;17.056;2022-12-15T04:32:57;106.30;43.70;
69224;PMS1003;56333;51.306;17.056;2022-12-15T04:34:43;94.70;42.10;
69224;PMS1003;56333;51.306;17.056;2022-12-15T04:36:30;95.10;41.80;
69224;PMS1003;56333;51.306;17.056;2022-12-15T04:38:17;94.70;41.80;
69224;PMS1003;56333;51.306;17.056;2022-12-15T04:40:06;92.30;41.70;
69224;PMS1003;56333;51.306;17.056;2022-12-15T04:41:55;93.80;41.70;
69224;PMS1003;56333;51.306;17.056;2022-12-15T04:43:43;93.30;41.10;
69224;PMS1003;56333;51.306;17.056;2022-12-15T04:45:29;92.70;41.40;
69224;PMS1003;56333;51.306;17.056;2022-12-15T04:47:15;93.80;39.20;
69224;PMS1003;56333;51.306;17.056;2022-12-15T04:49:04;86.90;39.80;
69224;PMS1003;56333;51.306;17.056;2022-12-15T04:50:51;89.30;39.60;
69224;PMS1003;56333;51.306;17.056;2022-12-15T04:52:37;86.80;38.40;
69224;PMS1003;56333;51.306;17.056;2022-12-15T04:54:23;87.10;38.70;
69224;PMS1003;56333;51.306;17.056;2022-12-15T04:56:14;85.40;37.70;
69224;PMS1003;56333;51.306;17.056;2022-12-15T04:58:04;90.10;40.70;
69224;PMS1003;56333;51.306;17.056;2022-12-15T04:59:51;91.60;39.70;
69224;PMS1003;56333;51.306;17.056;2022-12-15T05:01:37;87.90;36.90;
69224;PMS1003;56333;51.306;17.056;2022-12-15T05:03:23;81.90;38.20;
69224;PMS1003;56333;51.306;17.056;2022-12-15T05:05:10;83.60;36.40;
69224;PMS1003;56333;51.306;17.056;2022-12-15T05:06:57;79.70;36.60;
69224;PMS1003;56333;51.306;17.056;2022-12-15T05:08:43;84.70;36.90;
69224;PMS1003;56333;51.306;17.056;2022-12-15T05:10:29;79.60;36.20;
69224;PMS1003;56333;51.306;17.056;2022-12-15T05:12:15;80.10;37.40;
69224;PMS1003;56333;51.306;17.056;2022-12-15T05:14:01;79.10;35.80;
69224;PMS1003;56333;51.306;17.056;2022-12-15T05:15:47;84.00;38.20;
69224;PMS1003;56333;51.306;17.056;2022-12-15T05:17:34;79.40;36.20;
69224;PMS1003;56333;51.306;17.056;2022-12-15T05:19:19;84.20;36.90;
69224;PMS1003;56333;51.306;17.056;2022-12-15T05:21:06;75.90;35.60;
69224;PMS1003;56333;51.306;17.056;2022-12-15T05:22:56;80.70;35.90;
69224;PMS1003;56333;51.306;17.056;2022-12-15T05:24:43;81.60;35.30;
69224;PMS1003;56333;51.306;17.056;2022-12-15T05:26:29;75.30;35.20;
69224;PMS1003;56333;51.306;17.056;2022-12-15T05:28:15;79.40;35.10;
69224;PMS1003;56333;51.306;17.056;2022-12-15T05:30:01;80.40;36.40;
69224;PMS1003;56333;51.306;17.056;2022-12-15T05:31:48;83.90;36.30;
69224;PMS1003;56333;51.306;17.056;2022-12-15T05:33:17;83.40;35.50;
69224;PMS1003;56333;51.306;17.056;2022-12-15T05:34:45;79.60;35.70;
69224;PMS1003;56333;51.306;17.056;2022-12-15T05:36:14;75.30;35.70;
69224;PMS1003;56333;51.306;17.056;2022-12-15T05:37:43;77.40;35.10;
69224;PMS1003;56333;51.306;17.056;2022-12-15T05:39:12;75.90;34.80;
69224;PMS1003;56333;51.306;17.056;2022-12-15T05:40:40;77.30;35.50;
69224;PMS1003;56333;51.306;17.056;2022-12-15T05:42:09;76.60;36.00;
69224;PMS1003;56333;51.306;17.056;2022-12-15T05:43:38;76.90;36.40;
69224;PMS1003;56333;51.306;17.056;2022-12-15T05:45:12;80.80;36.70;
69224;PMS1003;56333;51.306;17.056;2022-12-15T05:46:40;80.90;36.90;
69224;PMS1003;56333;51.306;17.056;2022-12-15T05:48:09;78.80;36.10;
69224;PMS1003;56333;51.306;17.056;2022-12-15T05:49:38;81.50;37.30;
69224;PMS1003;56333;51.306;17.056;2022-12-15T05:51:08;77.90;36.20;
69224;PMS1003;56333;51.306;17.056;2022-12-15T05:54:05;79.70;36.30;
69224;PMS1003;56333;51.306;17.056;2022-12-15T05:55:34;77.90;37.00;
69224;PMS1003;56333;51.306;17.056;2022-12-15T05:57:02;79.10;35.50;
69224;PMS1003;56333;51.306;17.056;2022-12-15T05:58:31;78.50;35.40;
69224;PMS1003;56333;51.306;17.056;2022-12-15T06:00:00;77.20;35.90;
69224;PMS1003;56333;51.306;17.056;2022-12-15T06:01:37;83.10;35.80;
69224;PMS1003;56333;51.306;17.056;2022-12-15T06:03:06;76.00;35.00;
69224;PMS1003;56333;51.306;17.056;2022-12-15T06:04:34;77.20;34.60;
69224;PMS1003;56333;51.306;17.056;2022-12-15T06:06:04;69.50;32.80;
69224;PMS1003;56333;51.306;17.056;2022-12-15T06:07:33;66.20;32.70;
69224;PMS1003;56333;51.306;17.056;2022-12-15T06:09:02;56.90;26.90;
69224;PMS1003;56333;51.306;17.056;2022-12-15T06:10:31;58.00;27.00;
69224;PMS1003;56333;51.306;17.056;2022-12-15T06:11:59;57.20;27.30;
69224;PMS1003;56333;51.306;17.056;2022-12-15T06:13:29;53.00;25.50;
69224;PMS1003;56333;51.306;17.056;2022-12-15T06:14:59;61.20;28.10;
69224;PMS1003;56333;51.306;17.056;2022-12-15T06:16:28;66.10;30.60;
69224;PMS1003;56333;51.306;17.056;2022-12-15T06:17:57;61.30;29.00;
69224;PMS1003;56333;51.306;17.056;2022-12-15T06:19:25;63.30;30.10;
69224;PMS1003;56333;51.306;17.056;2022-12-15T06:21:02;60.60;30.30;
69224;PMS1003;56333;51.306;17.056;2022-12-15T06:22:32;61.10;27.30;
69224;PMS1003;56333;51.306;17.056;2022-12-15T06:24:01;65.90;29.80;
69224;PMS1003;56333;51.306;17.056;2022-12-15T06:25:30;61.30;27.20;
69224;PMS1003;56333;51.306;17.056;2022-12-15T06:26:58;61.00;27.40;
69224;PMS1003;56333;51.306;17.056;2022-12-15T06:28:27;56.60;25.00;
69224;PMS1003;56333;51.306;17.056;2022-12-15T06:29:57;46.60;23.10;
69224;PMS1003;56333;51.306;17.056;2022-12-15T06:31:26;38.30;19.90;
69224;PMS1003;56333;51.306;17.056;2022-12-15T06:32:55;42.40;20.30;
69224;PMS1003;56333;51.306;17.056;2022-12-15T06:34:23;41.60;19.80;
69224;PMS1003;56333;51.306;17.056;2022-12-15T06:35:52;44.50;21.40;
69224;PMS1003;56333;51.306;17.056;2022-12-15T06:37:20;53.80;25.40;
69224;PMS1003;56333;51.306;17.056;2022-12-15T06:38:49;55.10;26.10;
69224;PMS1003;56333;51.306;17.056;2022-12-15T06:40:18;55.30;26.20;
69224;PMS1003;56333;51.306;17.056;2022-12-15T06:41:46;55.30;26.10;
69224;PMS1003;56333;51.306;17.056;2022-12-15T06:43:15;56.80;27.70;
69224;PMS1003;56333;51.306;17.056;2022-12-15T06:44:44;52.70;24.50;
69224;PMS1003;56333;51.306;17.056;2022-12-15T06:46:13;55.70;27.90;
69224;PMS1003;56333;51.306;17.056;2022-12-15T06:47:41;55.90;26.90;
69224;PMS1003;56333;51.306;17.056;2022-12-15T06:49:11;59.20;29.00;
69224;PMS1003;56333;51.306;17.056;2022-12-15T06:50:40;63.80;29.80;
69224;PMS1003;56333;51.306;17.056;2022-12-15T06:52:10;61.40;29.90;
69224;PMS1003;56333;51.306;17.056;2022-12-15T06:53:40;59.20;29.60;
69224;PMS1003;56333;51.306;17.056;2022-12-15T06:55:13;70.40;31.10;
69224;PMS1003;56333;51.306;17.056;2022-12-15T06:56:42;71.00;32.40;
69224;PMS1003;56333;51.306;17.056;2022-12-15T06:58:13;63.40;31.00;
69224;PMS1003;56333;51.306;17.056;2022-12-15T06:59:43;66.50;30.90;
69224;PMS1003;56333;51.306;17.056;2022-12-15T07:01:13;66.50;31.70;
69224;PMS1003;56333;51.306;17.056;2022-12-15T07:02:43;68.20;30.70;
69224;PMS1003;56333;51.306;17.056;2022-12-15T07:04:12;65.30;30.90;
69224;PMS1003;56333;51.306;17.056;2022-12-15T07:05:42;63.40;30.80;
69224;PMS1003;56333;51.306;17.056;2022-12-15T07:07:11;68.20;32.20;
69224;PMS1003;56333;51.306;17.056;2022-12-15T07:08:40;72.00;33.10;
69224;PMS1003;56333;51.306;17.056;2022-12-15T07:10:12;70.20;32.30;
69224;PMS1003;56333;51.306;17.056;2022-12-15T07:11:42;68.10;32.90;
69224;PMS1003;56333;51.306;17.056;2022-12-15T07:13:14;69.90;33.40;
69224;PMS1003;56333;51.306;17.056;2022-12-15T07:14:42;67.90;33.40;
69224;PMS1003;56333;51.306;17.056;2022-12-15T07:16:11;67.50;32.30;
69224;PMS1003;56333;51.306;17.056;2022-12-15T07:17:40;68.70;33.00;
69224;PMS1003;56333;51.306;17.056;2022-12-15T07:19:10;70.40;34.00;
69224;PMS1003;56333;51.306;17.056;2022-12-15T07:20:38;73.20;34.40;
69224;PMS1003;56333;51.306;17.056;2022-12-15T07:22:07;70.40;33.20;
69224;PMS1003;56333;51.306;17.056;2022-12-15T07:23:36;69.90;32.80;
69224;PMS1003;56333;51.306;17.056;2022-12-15T07:25:07;71.00;32.70;
69224;PMS1003;56333;51.306;17.056;2022-12-15T07:26:37;74.70;34.60;
69224;PMS1003;56333;51.306;17.056;2022-12-15T07:28:07;75.40;34.60;
69224;PMS1003;56333;51.306;17.056;2022-12-15T07:29:36;69.00;33.20;
69224;PMS1003;56333;51.306;17.056;2022-12-15T07:31:07;68.30;32.90;
69224;PMS1003;56333;51.306;17.056;2022-12-15T07:32:37;69.10;33.40;
69224;PMS1003;56333;51.306;17.056;2022-12-15T07:34:05;73.60;34.60;
69224;PMS1003;56333;51.306;17.056;2022-12-15T07:35:35;71.40;34.80;
69224;PMS1003;56333;51.306;17.056;2022-12-15T07:37:04;70.60;34.00;
69224;PMS1003;56333;51.306;17.056;2022-12-15T07:38:32;72.20;33.30;
69224;PMS1003;56333;51.306;17.056;2022-12-15T07:40:02;67.60;34.00;
69224;PMS1003;56333;51.306;17.056;2022-12-15T07:41:33;71.20;34.20;
69224;PMS1003;56333;51.306;17.056;2022-12-15T07:43:01;73.10;34.50;
69224;PMS1003;56333;51.306;17.056;2022-12-15T07:44:30;73.00;34.20;
69224;PMS1003;56333;51.306;17.056;2022-12-15T07:45:59;67.20;32.30;
69224;PMS1003;56333;51.306;17.056;2022-12-15T07:47:27;68.90;32.60;
69224;PMS1003;56333;51.306;17.056;2022-12-15T07:48:56;70.90;33.00;
69224;PMS1003;56333;51.306;17.056;2022-12-15T07:50:25;65.60;32.10;
69224;PMS1003;56333;51.306;17.056;2022-12-15T07:51:53;61.70;31.20;
69224;PMS1003;56333;51.306;17.056;2022-12-15T07:53:23;65.30;32.00;
69224;PMS1003;56333;51.306;17.056;2022-12-15T07:54:52;60.70;29.80;
69224;PMS1003;56333;51.306;17.056;2022-12-15T07:56:21;62.50;29.90;
69224;PMS1003;56333;51.306;17.056;2022-12-15T07:57:50;65.00;29.20;
69224;PMS1003;56333;51.306;17.056;2022-12-15T07:59:19;64.50;29.30;
69224;PMS1003;56333;51.306;17.056;2022-12-15T08:00:48;60.30;29.70;
69224;PMS1003;56333;51.306;17.056;2022-12-15T08:02:17;60.40;28.80;
69224;PMS1003;56333;51.306;17.056;2022-12-15T08:03:46;58.10;26.60;
69224;PMS1003;56333;51.306;17.056;2022-12-15T08:05:15;58.80;27.50;
69224;PMS1003;56333;51.306;17.056;2022-12-15T08:06:43;52.80;26.20;
69224;PMS1003;56333;51.306;17.056;2022-12-15T08:08:12;56.50;27.90;
69224;PMS1003;56333;51.306;17.056;2022-12-15T08:09:42;59.40;28.40;
69224;PMS1003;56333;51.306;17.056;2022-12-15T08:11:14;59.60;28.20;
69224;PMS1003;56333;51.306;17.056;2022-12-15T08:14:10;56.90;27.30;
69224;PMS1003;56333;51.306;17.056;2022-12-15T08:15:40;59.70;28.80;
69224;PMS1003;56333;51.306;17.056;2022-12-15T08:17:08;57.20;27.50;
69224;PMS1003;56333;51.306;17.056;2022-12-15T08:18:37;63.00;29.80;
69224;PMS1003;56333;51.306;17.056;2022-12-15T08:20:09;62.00;29.90;
69224;PMS1003;56333;51.306;17.056;2022-12-15T08:21:41;61.60;29.90;
69224;PMS1003;56333;51.306;17.056;2022-12-15T08:24:37;60.80;29.50;
69224;PMS1003;56333;51.306;17.056;2022-12-15T08:26:08;63.00;30.50;
69224;PMS1003;56333;51.306;17.056;2022-12-15T08:27:38;64.20;30.20;
69224;PMS1003;56333;51.306;17.056;2022-12-15T08:29:09;63.30;31.60;
69224;PMS1003;56333;51.306;17.056;2022-12-15T08:30:39;54.80;26.70;
69224;PMS1003;56333;51.306;17.056;2022-12-15T08:32:08;54.00;25.10;
69224;PMS1003;56333;51.306;17.056;2022-12-15T08:33:40;51.40;25.20;
69224;PMS1003;56333;51.306;17.056;2022-12-15T08:35:10;47.30;23.60;
69224;PMS1003;56333;51.306;17.056;2022-12-15T08:36:38;46.80;22.50;
69224;PMS1003;56333;51.306;17.056;2022-12-15T08:38:07;46.70;22.70;
69224;PMS1003;56333;51.306;17.056;2022-12-15T08:39:36;44.00;21.90;
69224;PMS1003;56333;51.306;17.056;2022-12-15T08:41:11;44.80;22.10;
69224;PMS1003;56333;51.306;17.056;2022-12-15T08:42:41;46.10;22.40;
69224;PMS1003;56333;51.306;17.056;2022-12-15T08:44:09;46.20;22.40;
69224;PMS1003;56333;51.306;17.056;2022-12-15T08:45:40;46.30;22.00;
69224;PMS1003;56333;51.306;17.056;2022-12-15T08:47:09;44.50;22.00;
69224;PMS1003;56333;51.306;17.056;2022-12-15T08:48:38;45.10;22.10;
69224;PMS1003;56333;51.306;17.056;2022-12-15T08:50:08;42.60;21.80;
69224;PMS1003;56333;51.306;17.056;2022-12-15T08:51:39;40.30;21.00;
69224;PMS1003;56333;51.306;17.056;2022-12-15T08:53:08;42.90;20.90;
69224;PMS1003;56333;51.306;17.056;2022-12-15T08:54:37;45.20;22.20;
69224;PMS1003;56333;51.306;17.056;2022-12-15T08:56:07;41.70;20.90;
69224;PMS1003;56333;51.306;17.056;2022-12-15T08:57:37;39.90;20.60;
69224;PMS1003;56333;51.306;17.056;2022-12-15T08:59:06;40.70;19.80;
69224;PMS1003;56333;51.306;17.056;2022-12-15T09:00:35;42.60;21.30;
69224;PMS1003;56333;51.306;17.056;2022-12-15T09:02:03;42.20;20.70;
69224;PMS1003;56333;51.306;17.056;2022-12-15T09:03:33;40.50;20.70;
69224;PMS1003;56333;51.306;17.056;2022-12-15T09:05:03;41.60;21.00;
69224;PMS1003;56333;51.306;17.056;2022-12-15T09:06:34;43.10;20.50;
69224;PMS1003;56333;51.306;17.056;2022-12-15T09:08:03;45.70;21.70;
69224;PMS1003;56333;51.306;17.056;2022-12-15T09:09:32;43.20;21.90;
69224;PMS1003;56333;51.306;17.056;2022-12-15T09:11:02;41.00;20.40;
69224;PMS1003;56333;51.306;17.056;2022-12-15T09:12:30;40.60;20.60;
69224;PMS1003;56333;51.306;17.056;2022-12-15T09:14:00;40.70;20.30;
69224;PMS1003;56333;51.306;17.056;2022-12-15T09:15:28;42.40;20.70;
69224;PMS1003;56333;51.306;17.056;2022-12-15T09:16:57;35.90;18.70;
69224;PMS1003;56333;51.306;17.056;2022-12-15T09:18:25;36.10;18.40;
69224;PMS1003;56333;51.306;17.056;2022-12-15T09:19:54;36.10;18.30;
69224;PMS1003;56333;51.306;17.056;2022-12-15T09:21:25;33.40;16.90;
69224;PMS1003;56333;51.306;17.056;2022-12-15T09:22:54;34.00;16.40;
69224;PMS1003;56333;51.306;17.056;2022-12-15T09:24:25;32.60;16.30;
69224;PMS1003;56333;51.306;17.056;2022-12-15T09:25:59;30.00;15.50;
69224;PMS1003;56333;51.306;17.056;2022-12-15T09:27:29;34.10;16.70;
69224;PMS1003;56333;51.306;17.056;2022-12-15T09:28:59;32.40;16.70;